createdAt,value
2023-12-04T00:00:33.608Z,30.48
2023-12-04T00:03:00.553Z,30.57
2023-12-04T00:05:27.315Z,30.47
2023-12-04T00:07:54.235Z,30.50
2023-12-04T00:10:21.369Z,30.44
2023-12-04T00:12:48.180Z,30.42
2023-12-04T00:15:15.250Z,29.83
2023-12-04T00:17:42.226Z,30.21
2023-12-04T00:20:09.796Z,30.43
2023-12-04T00:22:37.104Z,30.54
2023-12-04T00:25:05.304Z,30.43
2023-12-04T00:27:32.152Z,30.22
2023-12-04T00:29:59.350Z,30.35
2023-12-04T00:32:26.484Z,30.35
2023-12-04T00:34:53.952Z,30.42
2023-12-04T00:37:20.797Z,30.56
2023-12-04T00:39:47.415Z,30.42
2023-12-04T00:42:14.192Z,30.47
2023-12-04T00:44:41.191Z,30.67
2023-12-04T00:47:08.077Z,30.72
2023-12-04T00:49:35.021Z,30.85
2023-12-04T00:52:01.774Z,30.76
2023-12-04T00:54:28.735Z,30.43
2023-12-04T00:56:55.776Z,30.42
2023-12-04T00:59:22.779Z,30.31
2023-12-04T01:01:49.576Z,30.23
2023-12-04T01:04:16.321Z,30.32
2023-12-04T01:06:43.266Z,30.50
2023-12-04T01:09:10.441Z,30.37
2023-12-04T01:11:37.461Z,30.28
2023-12-04T01:14:04.143Z,30.56
2023-12-04T01:16:31.530Z,30.53
2023-12-04T01:18:58.419Z,30.62
2023-12-04T01:21:25.449Z,30.57
2023-12-04T01:23:52.098Z,30.49
2023-12-04T01:26:18.879Z,30.28
2023-12-04T01:28:45.710Z,30.28
2023-12-04T01:31:12.372Z,30.26
2023-12-04T01:33:39.388Z,30.20
2023-12-04T01:36:06.760Z,29.95
2023-12-04T01:38:33.524Z,29.98
2023-12-04T01:41:00.325Z,30.00
2023-12-04T01:43:29.007Z,29.93
2023-12-04T01:45:56.084Z,29.80
2023-12-04T01:48:22.972Z,29.35
2023-12-04T01:50:49.696Z,28.08
2023-12-04T01:53:16.442Z,29.28
2023-12-04T01:55:43.152Z,29.67
2023-12-04T01:58:10.082Z,29.92
2023-12-04T02:00:36.807Z,29.98
2023-12-04T02:03:03.699Z,29.85
2023-12-04T02:05:30.460Z,29.92
2023-12-04T02:07:57.704Z,29.72
2023-12-04T02:10:24.457Z,29.95
2023-12-04T02:12:51.606Z,29.95
2023-12-04T02:15:18.702Z,29.86
2023-12-04T02:17:45.698Z,29.80
2023-12-04T02:20:15.995Z,30.04
2023-12-04T02:22:43.215Z,29.94
2023-12-04T02:25:14.563Z,30.05
2023-12-04T02:27:50.580Z,30.09
2023-12-04T02:30:18.817Z,30.19
2023-12-04T02:32:46.517Z,30.14
2023-12-04T02:35:13.261Z,30.20
2023-12-04T02:37:40.850Z,30.24
2023-12-04T02:40:08.176Z,30.32
2023-12-04T02:42:35.041Z,30.27
2023-12-04T02:45:02.124Z,30.15
2023-12-04T02:47:29.020Z,30.25
2023-12-04T02:49:55.671Z,30.32
2023-12-04T02:52:22.284Z,30.12
2023-12-04T02:54:48.945Z,30.12
2023-12-04T02:57:16.004Z,30.27
2023-12-04T02:59:42.811Z,30.15
2023-12-04T03:02:09.458Z,30.20
2023-12-04T03:04:36.383Z,30.34
2023-12-04T03:07:03.806Z,30.55
2023-12-04T03:09:47.805Z,30.58
2023-12-04T03:12:17.585Z,30.53
2023-12-04T03:14:44.513Z,30.14
2023-12-04T03:17:11.292Z,30.16
2023-12-04T03:19:38.737Z,30.28
2023-12-04T03:22:05.473Z,30.16
2023-12-04T03:24:32.333Z,30.10
2023-12-04T03:26:59.231Z,29.83
2023-12-04T03:29:26.077Z,29.65
2023-12-04T03:31:53.049Z,29.63
2023-12-04T03:34:19.830Z,29.61
2023-12-04T03:36:46.572Z,29.62
2023-12-04T03:39:13.430Z,29.59
2023-12-04T03:41:40.276Z,29.50
2023-12-04T03:44:07.279Z,29.38
2023-12-04T03:46:33.943Z,29.24
2023-12-04T03:49:00.797Z,29.25
2023-12-04T03:51:27.629Z,29.11
2023-12-04T03:53:54.787Z,29.22
2023-12-04T03:56:21.884Z,29.20
2023-12-04T03:58:48.452Z,29.16
2023-12-04T04:01:15.246Z,29.14
2023-12-04T04:03:43.183Z,29.22
2023-12-04T04:06:13.064Z,29.20
2023-12-04T04:08:39.949Z,29.15
2023-12-04T04:11:06.976Z,28.96
2023-12-04T04:13:33.783Z,28.96
2023-12-04T04:16:00.512Z,28.74
2023-12-04T04:18:27.788Z,28.83
2023-12-04T04:20:54.962Z,28.87
2023-12-04T04:23:21.659Z,28.92
2023-12-04T04:25:48.732Z,28.99
2023-12-04T04:28:15.310Z,28.98
2023-12-04T04:30:42.157Z,29.01
2023-12-04T04:33:09.498Z,28.95
2023-12-04T04:35:36.259Z,28.74
2023-12-04T04:38:04.296Z,28.71
2023-12-04T04:40:31.036Z,28.59
2023-12-04T04:42:57.827Z,28.89
2023-12-04T04:45:24.814Z,29.05
2023-12-04T04:47:52.045Z,29.17
2023-12-04T04:50:18.800Z,29.52
2023-12-04T04:52:45.473Z,29.38
2023-12-04T04:55:12.345Z,29.65
2023-12-04T04:57:59.268Z,29.91
2023-12-04T05:00:26.253Z,29.96
2023-12-04T05:02:53.057Z,29.94
2023-12-04T05:05:19.886Z,30.14
2023-12-04T05:07:46.791Z,29.81
2023-12-04T05:10:13.696Z,29.76
2023-12-04T05:12:40.471Z,29.84
2023-12-04T05:15:07.666Z,29.84
2023-12-04T05:17:34.492Z,29.89
2023-12-04T05:20:02.167Z,29.44
2023-12-04T05:22:29.390Z,29.54
2023-12-04T05:24:56.713Z,29.76
2023-12-04T05:27:23.433Z,29.54
2023-12-04T05:29:50.431Z,29.48
2023-12-04T05:32:17.177Z,29.68
2023-12-04T05:34:44.023Z,29.57
2023-12-04T05:37:10.710Z,29.23
2023-12-04T05:39:37.585Z,29.28
2023-12-04T05:42:04.614Z,30.04
2023-12-04T05:44:32.543Z,29.86
2023-12-04T05:46:59.572Z,30.26
2023-12-04T05:49:26.484Z,30.26
2023-12-04T05:51:53.429Z,30.10
2023-12-04T05:54:20.065Z,30.01
2023-12-04T05:56:46.700Z,30.04
2023-12-04T05:59:14.065Z,29.90
2023-12-04T06:01:40.843Z,29.80
2023-12-04T06:04:07.533Z,29.78
2023-12-04T06:06:34.515Z,29.76
2023-12-04T06:09:01.237Z,29.55
2023-12-04T06:11:28.294Z,29.44
2023-12-04T06:13:55.316Z,29.40
2023-12-04T06:16:22.201Z,29.50
2023-12-04T06:18:49.244Z,29.48
2023-12-04T06:21:16.157Z,29.41
2023-12-04T06:23:43.601Z,29.32
2023-12-04T06:26:11.624Z,29.29
2023-12-04T06:28:39.420Z,29.20
2023-12-04T06:31:06.963Z,29.44
2023-12-04T06:33:33.877Z,29.52
2023-12-04T06:36:01.144Z,29.58
2023-12-04T06:38:27.918Z,29.65
2023-12-04T06:40:54.715Z,29.78
2023-12-04T06:43:22.763Z,29.94
2023-12-04T06:45:49.769Z,29.88
2023-12-04T06:48:17.735Z,29.71
2023-12-04T06:50:44.343Z,29.94
2023-12-04T06:53:11.166Z,30.09
2023-12-04T06:55:38.318Z,30.22
2023-12-04T06:58:05.257Z,30.37
2023-12-04T07:00:32.389Z,30.55
2023-12-04T07:02:59.753Z,30.76
2023-12-04T07:05:26.919Z,31.00
2023-12-04T07:07:53.721Z,31.23
2023-12-04T07:10:20.544Z,31.06
2023-12-04T07:12:48.335Z,31.15
2023-12-04T07:15:15.048Z,31.40
2023-12-04T07:17:41.870Z,31.20
2023-12-04T07:20:09.684Z,31.16
2023-12-04T07:22:38.656Z,31.15
2023-12-04T07:25:10.377Z,31.22
2023-12-04T07:27:37.820Z,31.36
2023-12-04T07:30:05.018Z,31.33
2023-12-04T07:32:33.307Z,31.42
2023-12-04T07:35:00.507Z,31.42
2023-12-04T07:37:27.713Z,31.42
2023-12-04T07:39:54.881Z,31.29
2023-12-04T07:42:21.838Z,31.41
2023-12-04T07:44:48.531Z,31.26
2023-12-04T07:47:16.906Z,31.50
2023-12-04T07:49:45.564Z,31.33
2023-12-04T07:52:12.567Z,31.75
2023-12-04T07:54:39.632Z,31.86
2023-12-04T07:57:06.400Z,31.96
2023-12-04T07:59:33.657Z,32.08
2023-12-04T08:02:00.792Z,32.40
2023-12-04T08:04:28.196Z,32.10
2023-12-04T08:06:54.948Z,32.26
2023-12-04T08:09:22.296Z,32.31
2023-12-04T08:11:49.276Z,32.29
2023-12-04T08:14:16.916Z,32.52
2023-12-04T08:16:43.657Z,32.34
2023-12-04T08:19:10.811Z,32.38
2023-12-04T08:21:38.137Z,32.06
2023-12-04T08:24:04.907Z,32.20
2023-12-04T08:26:32.210Z,32.07
2023-12-04T08:28:59.061Z,32.36
2023-12-04T08:31:25.850Z,32.06
2023-12-04T08:33:52.863Z,31.95
2023-12-04T08:36:19.538Z,31.60
2023-12-04T08:38:47.120Z,31.79
2023-12-04T08:41:13.808Z,31.71
2023-12-04T08:43:40.466Z,31.63
2023-12-04T08:46:08.119Z,31.53
2023-12-04T08:48:35.054Z,31.55
2023-12-04T08:51:02.278Z,31.60
2023-12-04T08:53:29.586Z,31.66
2023-12-04T08:55:57.965Z,31.52
2023-12-04T08:58:24.584Z,31.50
2023-12-04T09:00:51.750Z,31.46
2023-12-04T09:03:26.520Z,31.56
2023-12-04T09:06:00.489Z,31.81
2023-12-04T09:08:35.116Z,31.69
2023-12-04T09:13:36.059Z,31.48
2023-12-04T09:16:03.075Z,31.68
2023-12-04T09:18:30.389Z,31.47
2023-12-04T09:20:57.264Z,31.40
2023-12-04T09:23:24.941Z,31.32
2023-12-04T09:25:53.794Z,31.38
2023-12-04T09:28:20.641Z,31.30
2023-12-04T09:30:47.622Z,31.27
2023-12-04T09:33:14.625Z,31.34
2023-12-04T09:35:41.890Z,31.36
2023-12-04T09:38:09.060Z,31.39
2023-12-04T09:40:35.765Z,31.50
2023-12-04T09:43:02.582Z,31.21
2023-12-04T09:45:29.647Z,30.48
2023-12-04T09:47:56.640Z,30.15
2023-12-04T09:50:24.318Z,30.41
2023-12-04T09:52:51.339Z,30.10
2023-12-04T09:55:18.470Z,30.00
2023-12-04T09:57:46.050Z,29.73
2023-12-04T10:00:16.292Z,29.71
2023-12-04T10:02:43.996Z,29.72
2023-12-04T10:05:10.779Z,29.52
2023-12-04T10:07:38.183Z,29.25
2023-12-04T10:10:08.833Z,29.06
2023-12-04T10:12:36.653Z,28.93
2023-12-04T10:15:07.671Z,28.78
2023-12-04T10:17:38.549Z,28.34
2023-12-04T10:20:13.205Z,28.57
2023-12-04T10:22:40.913Z,28.50
2023-12-04T10:25:18.501Z,28.09
2023-12-04T10:27:46.304Z,28.08
2023-12-04T10:30:30.998Z,28.08
2023-12-04T10:33:01.073Z,27.96
2023-12-04T10:35:38.774Z,28.17
2023-12-04T10:38:06.805Z,28.19
2023-12-04T10:40:34.824Z,28.11
2023-12-04T10:43:25.297Z,27.96
2023-12-04T10:45:53.599Z,27.91
2023-12-04T10:48:20.917Z,28.17
2023-12-04T10:50:48.795Z,28.02
2023-12-04T10:53:17.150Z,27.81
2023-12-04T10:55:45.179Z,27.83
2023-12-04T10:58:15.171Z,27.79
2023-12-04T11:00:44.921Z,27.71
2023-12-04T11:03:33.846Z,27.73
2023-12-04T11:06:01.352Z,27.48
2023-12-04T11:10:00.246Z,28.56
2023-12-04T11:12:28.150Z,23.76
2023-12-04T11:14:57.547Z,23.52
2023-12-04T11:17:26.162Z,23.30
2023-12-04T11:19:56.990Z,26.07
2023-12-04T11:22:25.061Z,27.31
2023-12-04T11:24:52.984Z,27.01
2023-12-04T11:27:21.908Z,26.81
2023-12-04T11:29:49.683Z,26.39
2023-12-04T11:32:18.351Z,26.31
2023-12-04T11:34:53.545Z,26.75
2023-12-04T11:37:21.949Z,26.39
2023-12-04T11:39:51.176Z,23.98
2023-12-04T11:42:25.682Z,23.39
2023-12-04T11:45:02.810Z,23.01
2023-12-04T11:47:30.572Z,24.38
2023-12-04T11:49:58.781Z,24.26
2023-12-04T11:52:35.924Z,23.89
2023-12-04T11:55:08.190Z,24.36
2023-12-04T11:57:40.172Z,23.92
2023-12-04T12:00:24.976Z,23.70
2023-12-04T12:03:16.123Z,25.88
2023-12-04T12:05:44.100Z,26.62
2023-12-04T12:08:12.467Z,26.59
2023-12-04T12:10:40.276Z,26.70
2023-12-04T12:13:07.876Z,26.99
2023-12-04T12:15:36.891Z,26.62
2023-12-04T12:18:06.130Z,27.05
2023-12-04T12:20:34.354Z,27.22
2023-12-04T12:23:02.298Z,26.52
2023-12-04T12:25:30.157Z,26.15
2023-12-04T12:27:58.212Z,26.04
2023-12-04T12:30:26.083Z,25.87
2023-12-04T12:32:53.919Z,26.03
2023-12-04T12:35:22.503Z,26.04
2023-12-04T12:37:51.220Z,26.08
2023-12-04T12:40:19.621Z,26.21
2023-12-04T12:42:47.461Z,26.06
2023-12-04T12:45:15.337Z,26.12
2023-12-04T12:47:44.070Z,26.28
2023-12-04T12:50:13.004Z,26.33
2023-12-04T12:52:42.243Z,26.44
2023-12-04T12:55:11.237Z,26.42
2023-12-04T12:57:40.189Z,26.45
2023-12-04T13:00:08.614Z,26.45
2023-12-04T13:02:40.858Z,26.36
2023-12-04T13:07:38.190Z,26.39
2023-12-04T13:10:06.641Z,26.14
2023-12-04T13:12:34.812Z,26.20
2023-12-04T13:15:03.286Z,26.43
2023-12-04T13:17:31.075Z,26.60
2023-12-04T13:19:59.467Z,26.58
2023-12-04T13:22:27.255Z,26.52
2023-12-04T13:24:54.808Z,26.65
2023-12-04T13:27:22.909Z,26.41
2023-12-04T13:29:51.625Z,26.44
2023-12-04T13:32:19.319Z,26.35
2023-12-04T13:34:47.988Z,26.53
2023-12-04T13:37:17.020Z,26.48
2023-12-04T13:39:52.991Z,26.64
2023-12-04T13:42:39.347Z,26.27
2023-12-04T13:45:10.926Z,26.42
2023-12-04T13:47:39.245Z,26.41
2023-12-04T13:50:10.224Z,25.80
2023-12-04T13:52:39.949Z,25.98
2023-12-04T13:55:36.774Z,26.19
2023-12-04T13:58:04.545Z,26.34
2023-12-04T14:00:32.182Z,26.53
2023-12-04T14:07:40.381Z,26.71
2023-12-04T14:10:09.893Z,26.64
2023-12-04T14:12:38.089Z,26.55
2023-12-04T14:15:06.781Z,26.43
2023-12-04T14:17:34.797Z,26.24
2023-12-04T14:20:07.309Z,26.30
2023-12-04T14:22:35.207Z,26.42
2023-12-04T14:25:03.315Z,26.36
2023-12-04T14:27:31.007Z,26.29
2023-12-04T14:30:00.538Z,26.25
2023-12-04T14:32:34.626Z,26.25
2023-12-04T14:35:10.127Z,26.30
2023-12-04T14:37:37.802Z,26.43
2023-12-04T14:40:06.419Z,26.11
2023-12-04T14:42:34.733Z,26.30
2023-12-04T14:45:02.447Z,26.49
2023-12-04T14:47:30.183Z,26.52
2023-12-04T14:49:58.295Z,26.27
2023-12-04T14:52:29.736Z,26.52
2023-12-04T14:55:09.717Z,26.43
2023-12-04T14:57:40.949Z,26.52
2023-12-04T15:00:27.895Z,26.55
2023-12-04T15:03:14.490Z,26.37
2023-12-04T15:06:01.012Z,26.48
2023-12-04T15:08:34.601Z,26.26
2023-12-04T15:11:17.597Z,26.27
2023-12-04T15:14:05.433Z,26.45
2023-12-04T15:16:47.844Z,26.30
2023-12-04T15:19:30.182Z,26.39
2023-12-04T15:21:58.020Z,26.50
2023-12-04T15:24:26.536Z,26.55
2023-12-04T15:26:54.409Z,26.50
2023-12-04T15:29:23.119Z,26.66
2023-12-04T15:31:50.907Z,26.74
2023-12-04T15:34:20.023Z,26.81
2023-12-04T15:36:48.020Z,26.82
2023-12-04T15:39:20.254Z,27.01
2023-12-04T15:41:48.096Z,26.86
2023-12-04T15:44:16.141Z,26.92
2023-12-04T15:46:43.959Z,27.05
2023-12-04T15:49:12.818Z,26.91
2023-12-04T15:51:41.033Z,26.86
2023-12-04T15:54:09.742Z,27.18
2023-12-04T15:56:37.682Z,27.23
2023-12-04T15:59:05.530Z,27.21
2023-12-04T16:01:33.426Z,27.34
2023-12-04T16:04:01.317Z,27.48
2023-12-04T16:06:29.311Z,27.43
2023-12-04T16:08:58.980Z,27.59
2023-12-04T16:11:27.317Z,27.58
2023-12-04T16:13:55.196Z,27.87
2023-12-04T16:16:22.822Z,27.96
2023-12-04T16:18:50.913Z,27.87
2023-12-04T16:21:18.741Z,27.79
2023-12-04T16:23:46.219Z,27.80
2023-12-04T16:26:14.131Z,27.75
2023-12-04T16:28:41.864Z,27.84
2023-12-04T16:31:09.555Z,27.81
2023-12-04T16:33:37.129Z,27.85
2023-12-04T16:36:05.583Z,27.73
2023-12-04T16:38:34.105Z,27.77
2023-12-04T16:41:02.788Z,27.75
2023-12-04T16:43:31.171Z,27.75
2023-12-04T16:45:58.864Z,27.86
2023-12-04T16:48:26.851Z,27.85
2023-12-04T16:50:54.782Z,27.77
2023-12-04T16:53:22.305Z,27.89
2023-12-04T16:55:50.047Z,27.94
2023-12-04T16:58:18.494Z,27.98
2023-12-04T17:00:46.141Z,28.01
2023-12-04T17:03:15.610Z,28.11
2023-12-04T17:05:43.806Z,28.02
2023-12-04T17:08:11.769Z,28.01
2023-12-04T17:10:39.887Z,28.10
2023-12-04T17:13:07.832Z,27.97
2023-12-04T17:15:36.445Z,27.86
2023-12-04T17:18:04.120Z,27.70
2023-12-04T17:20:32.131Z,27.56
2023-12-04T17:22:59.748Z,27.68
2023-12-04T17:25:27.919Z,27.61
2023-12-04T17:27:57.121Z,27.67
2023-12-04T17:30:25.069Z,27.53
2023-12-04T17:32:53.243Z,27.73
2023-12-04T17:35:22.905Z,27.69
2023-12-04T17:37:50.855Z,27.78
2023-12-04T17:40:20.102Z,27.82
2023-12-04T17:42:48.246Z,27.97
2023-12-04T17:45:18.124Z,27.94
2023-12-04T17:47:46.340Z,27.91
2023-12-04T17:50:14.362Z,27.99
2023-12-04T17:52:44.899Z,28.09
2023-12-04T17:55:12.474Z,28.04
2023-12-04T17:57:40.997Z,27.86
2023-12-04T18:00:15.770Z,28.14
2023-12-04T18:02:46.539Z,28.07
2023-12-04T18:05:14.520Z,28.11
2023-12-04T18:07:44.173Z,27.97
2023-12-04T18:10:12.216Z,28.07
2023-12-04T18:12:41.229Z,28.21
2023-12-04T18:15:11.006Z,28.30
2023-12-04T18:17:43.462Z,28.33
2023-12-04T18:20:16.616Z,28.20
2023-12-04T18:22:45.092Z,28.08
2023-12-04T18:25:13.331Z,28.15
2023-12-04T18:27:41.556Z,28.27
2023-12-04T18:30:10.707Z,28.11
2023-12-04T18:32:38.970Z,28.31
2023-12-04T18:35:08.797Z,28.24
2023-12-04T18:37:46.634Z,28.33
2023-12-04T18:40:14.353Z,28.32
2023-12-04T18:42:42.758Z,28.38
2023-12-04T18:45:11.262Z,28.19
2023-12-04T18:47:40.829Z,28.29
2023-12-04T18:50:09.079Z,28.32
2023-12-04T18:52:37.904Z,28.33
2023-12-04T18:55:06.144Z,28.17
2023-12-04T18:57:33.921Z,28.15
2023-12-04T19:00:01.501Z,28.10
2023-12-04T19:02:29.088Z,28.21
2023-12-04T19:04:57.613Z,28.14
2023-12-04T19:07:25.670Z,28.06
2023-12-04T19:09:53.333Z,28.11
2023-12-04T19:12:21.943Z,28.18
2023-12-04T19:14:49.665Z,28.07
2023-12-04T19:17:17.452Z,28.18
2023-12-04T19:19:45.397Z,28.22
2023-12-04T19:22:13.294Z,28.07
2023-12-04T19:24:41.532Z,28.13
2023-12-04T19:27:09.228Z,28.24
2023-12-04T19:29:37.109Z,28.05
2023-12-04T19:32:05.563Z,28.09
2023-12-04T19:34:34.016Z,28.13
2023-12-04T19:37:02.027Z,28.35
2023-12-04T19:39:29.806Z,28.16
2023-12-04T19:41:57.381Z,28.21
2023-12-04T19:44:25.525Z,28.21
2023-12-04T19:46:55.212Z,28.26
2023-12-04T19:49:23.080Z,28.25
2023-12-04T19:51:50.998Z,28.38
2023-12-04T19:54:18.664Z,28.40
2023-12-04T19:56:47.856Z,28.47
2023-12-04T19:59:16.040Z,28.44
2023-12-04T20:01:43.833Z,28.47
2023-12-04T20:04:11.720Z,28.44
2023-12-04T20:06:39.751Z,28.52
2023-12-04T20:09:08.033Z,28.54
2023-12-04T20:11:36.768Z,28.60
2023-12-04T20:14:04.820Z,28.65
2023-12-04T20:16:32.514Z,28.56
2023-12-04T20:19:00.456Z,28.67
2023-12-04T20:21:29.339Z,28.74
2023-12-04T20:23:57.013Z,28.79
2023-12-04T20:26:24.597Z,28.68
2023-12-04T20:28:52.443Z,28.81
2023-12-04T20:31:20.087Z,28.79
2023-12-04T20:33:48.924Z,28.67
2023-12-04T20:36:16.854Z,28.79
2023-12-04T20:38:44.438Z,28.74
2023-12-04T20:41:12.069Z,28.70
2023-12-04T20:43:40.523Z,28.95
2023-12-04T20:46:09.112Z,28.97
2023-12-04T20:48:37.184Z,29.11
2023-12-04T20:51:05.781Z,28.90
2023-12-04T20:53:34.038Z,28.96
2023-12-04T20:56:02.276Z,28.72
2023-12-04T20:58:30.556Z,28.84
2023-12-04T21:00:58.203Z,28.71
2023-12-04T21:03:26.301Z,28.67
2023-12-04T21:05:54.024Z,28.92
2023-12-04T21:08:22.056Z,28.95
2023-12-04T21:10:49.878Z,28.84
2023-12-04T21:13:17.738Z,28.95
2023-12-04T21:15:45.506Z,28.73
2023-12-04T21:18:13.293Z,28.78
2023-12-04T21:20:41.384Z,28.76
2023-12-04T21:23:11.330Z,28.71
2023-12-04T21:25:39.089Z,28.76
2023-12-04T21:28:07.618Z,28.85
2023-12-04T21:30:35.237Z,28.82
2023-12-04T21:33:03.148Z,28.73
2023-12-04T21:35:31.006Z,28.62
2023-12-04T21:37:58.718Z,28.68
2023-12-04T21:40:26.535Z,28.70
2023-12-04T21:42:54.156Z,28.57
2023-12-04T21:45:22.871Z,28.51
2023-12-04T21:47:50.855Z,28.57
2023-12-04T21:50:18.466Z,28.42
2023-12-04T21:52:46.011Z,28.36
2023-12-04T21:55:14.032Z,28.30
2023-12-04T21:57:41.913Z,28.25
2023-12-04T22:00:11.865Z,28.35
2023-12-04T22:02:40.016Z,28.27
2023-12-04T22:05:09.038Z,27.75
2023-12-04T22:07:36.680Z,24.63
2023-12-04T22:10:04.651Z,23.74
2023-12-04T22:12:32.885Z,23.80
2023-12-04T22:15:00.582Z,23.69
2023-12-04T22:17:28.128Z,23.25
2023-12-04T22:19:57.004Z,23.54
2023-12-04T22:22:25.550Z,23.50
2023-12-04T22:24:53.898Z,23.36
2023-12-04T22:27:21.918Z,23.51
2023-12-04T22:29:49.473Z,23.74
2023-12-04T22:32:17.325Z,23.70
2023-12-04T22:34:44.981Z,23.64
2023-12-04T22:37:12.627Z,23.82
2023-12-04T22:39:40.688Z,23.89
2023-12-04T22:42:08.741Z,24.80
2023-12-04T22:44:38.048Z,27.73
2023-12-04T22:47:05.766Z,28.60
2023-12-04T22:49:33.854Z,29.08
2023-12-04T22:52:01.650Z,29.37
2023-12-04T22:54:29.332Z,29.60
2023-12-04T22:56:56.955Z,29.55
2023-12-04T22:59:24.681Z,29.17
2023-12-04T23:01:52.498Z,29.20
2023-12-04T23:04:20.234Z,29.37
2023-12-04T23:06:48.790Z,29.38
2023-12-04T23:09:16.666Z,29.31
2023-12-04T23:11:44.252Z,29.18
2023-12-04T23:14:12.116Z,29.10
2023-12-04T23:16:43.596Z,29.08
2023-12-04T23:19:11.291Z,29.02
2023-12-04T23:21:39.446Z,28.91
2023-12-04T23:26:02.059Z,31.85
2023-12-04T23:28:29.635Z,28.64
2023-12-04T23:30:57.325Z,28.67
2023-12-04T23:33:25.511Z,28.57
2023-12-04T23:35:53.370Z,28.63
2023-12-04T23:38:21.345Z,29.00
2023-12-04T23:40:49.189Z,29.19
2023-12-04T23:43:16.755Z,29.01
2023-12-04T23:45:52.919Z,28.99
2023-12-04T23:48:24.711Z,28.87
2023-12-04T23:50:52.640Z,29.07
2023-12-04T23:53:20.342Z,28.75
2023-12-04T23:55:48.154Z,28.67
2023-12-04T23:58:15.661Z,28.27
